Time;durP1;ratioP1;P1;durP2;ratioP2;P2;SDS_P1;SDS_P2;PMS_P1;PMS_P2;Temp;Humidity;BMP_temperature;BMP_pressure;BME280_temperature;BME280_humidity;BME280_pressure;Samples;Min_cycle;Max_cycle;Signal;HPM_P1;HPM_P2
2024/01/23 00:02:09;;;;;;;30.40;6.17;;;5.90;73.90;;;;;;5038233;28;20404;-71
2024/01/23 00:04:35;;;;;;;28.73;5.70;;;5.80;73.90;;;;;;5034793;28;20459;-73
2024/01/23 00:07:01;;;;;;;30.43;6.10;;;5.80;73.90;;;;;;5038206;28;20052;-71
2024/01/23 00:09:27;;;;;;;32.77;5.90;;;5.80;74.00;;;;;;5037627;28;20053;-71
2024/01/23 00:11:53;;;;;;;28.93;6.50;;;5.70;73.90;;;;;;5001200;28;20575;-73
2024/01/23 00:14:19;;;;;;;30.40;5.70;;;5.70;74.20;;;;;;5020828;28;20064;-70
2024/01/23 00:16:45;;;;;;;30.83;6.17;;;5.60;74.20;;;;;;5038581;28;20099;-71
2024/01/23 00:19:10;;;;;;;30.23;5.90;;;5.60;74.30;;;;;;5036500;28;20064;-71
2024/01/23 00:21:36;;;;;;;26.93;6.20;;;5.60;74.30;;;;;;5041319;28;20045;-72
2024/01/23 00:24:02;;;;;;;26.23;6.00;;;5.50;74.50;;;;;;5033166;28;20073;-71
2024/01/23 00:26:28;;;;;;;39.57;6.23;;;5.50;74.60;;;;;;5038427;28;20044;-72
2024/01/23 00:28:53;;;;;;;28.53;5.87;;;5.50;74.60;;;;;;5036329;28;20037;-72
2024/01/23 00:31:19;;;;;;;35.33;6.70;;;5.50;74.60;;;;;;5034069;28;20059;-70
2024/01/23 00:33:45;;;;;;;34.97;6.60;;;5.60;74.50;;;;;;5047216;28;20111;-71
2024/01/23 00:36:10;;;;;;;33.53;6.53;;;5.60;74.40;;;;;;5038274;28;20389;-71
2024/01/23 00:38:36;;;;;;;30.90;6.23;;;5.70;74.40;;;;;;5021001;28;20137;-71
2024/01/23 00:41:01;;;;;;;30.10;6.00;;;5.70;74.40;;;;;;5041915;28;20053;-71
2024/01/23 00:43:27;;;;;;;31.63;6.80;;;5.60;74.30;;;;;;5045770;28;20503;-71
2024/01/23 00:45:53;;;;;;;30.63;6.03;;;5.60;74.30;;;;;;5037295;28;20403;-71
2024/01/23 00:48:19;;;;;;;30.27;6.30;;;5.60;74.30;;;;;;5034052;28;20049;-71
2024/01/23 00:50:44;;;;;;;27.77;6.27;;;5.60;74.30;;;;;;5036729;28;20408;-72
2024/01/23 00:53:10;;;;;;;26.77;6.10;;;5.60;74.20;;;;;;5037670;28;20466;-71
2024/01/23 00:55:35;;;;;;;26.47;6.23;;;5.60;74.30;;;;;;5045362;28;20045;-71
2024/01/23 00:58:01;;;;;;;27.67;5.27;;;5.60;74.30;;;;;;5042617;28;20416;-71
2024/01/23 01:00:27;;;;;;;33.83;5.60;;;5.70;74.30;;;;;;5024884;28;20408;-71
2024/01/23 01:02:53;;;;;;;33.03;6.37;;;5.70;74.20;;;;;;5044666;28;20123;-71
2024/01/23 01:05:18;;;;;;;32.77;6.53;;;5.70;74.00;;;;;;5041649;28;20684;-71
2024/01/23 01:07:44;;;;;;;26.43;6.60;;;5.70;74.20;;;;;;5038107;28;20055;-72
2024/01/23 01:10:10;;;;;;;31.67;5.93;;;5.60;74.10;;;;;;5030917;28;20107;-71
2024/01/23 01:12:36;;;;;;;33.67;5.97;;;5.70;74.10;;;;;;5021422;28;20045;-70
2024/01/23 01:15:02;;;;;;;29.00;6.23;;;5.60;74.10;;;;;;5036587;28;20498;-72
2024/01/23 01:17:28;;;;;;;28.90;6.03;;;5.60;74.00;;;;;;5018542;28;20045;-71
2024/01/23 01:19:54;;;;;;;25.93;5.73;;;5.60;74.00;;;;;;5040480;28;20045;-70
2024/01/23 01:22:20;;;;;;;27.70;6.13;;;5.60;74.00;;;;;;4997445;28;20057;-71
2024/01/23 01:24:46;;;;;;;36.37;6.37;;;5.50;74.20;;;;;;5048608;28;20067;-71
2024/01/23 01:27:12;;;;;;;32.43;6.73;;;5.50;74.20;;;;;;5039999;28;20511;-71
2024/01/23 01:29:38;;;;;;;29.07;6.40;;;5.50;74.30;;;;;;5044443;28;20131;-71
2024/01/23 01:32:04;;;;;;;27.77;6.07;;;5.50;74.40;;;;;;5039594;28;20048;-70
2024/01/23 01:34:31;;;;;;;30.13;6.20;;;5.40;74.50;;;;;;5034177;28;20094;-71
2024/01/23 01:36:57;;;;;;;35.67;7.30;;;5.40;74.60;;;;;;5029785;28;20045;-71
2024/01/23 01:39:22;;;;;;;31.40;6.40;;;5.40;74.60;;;;;;5041092;28;20064;-71
2024/01/23 01:41:55;;;;;;;30.47;6.03;;;5.40;74.70;;;;;;5033717;28;20052;-71
2024/01/23 01:44:21;;;;;;;33.40;6.43;;;5.30;74.80;;;;;;5035485;28;20152;-71
2024/01/23 01:46:48;;;;;;;27.60;6.10;;;5.30;75.00;;;;;;5040255;28;20691;-72
2024/01/23 01:49:16;;;;;;;35.00;7.23;;;5.30;75.10;;;;;;5039811;28;20067;-71
2024/01/23 01:51:43;;;;;;;30.70;6.53;;;5.30;75.20;;;;;;5044130;28;20045;-71
2024/01/23 01:54:08;;;;;;;35.53;6.93;;;5.30;75.20;;;;;;5018856;28;20548;-71
2024/01/23 01:56:35;;;;;;;28.73;5.83;;;5.30;75.40;;;;;;5032803;28;20055;-71
2024/01/23 01:59:00;;;;;;;31.43;6.20;;;5.20;75.50;;;;;;5039863;28;20045;-71
2024/01/23 02:01:27;;;;;;;29.00;6.30;;;5.20;75.40;;;;;;5034142;28;20075;-71
2024/01/23 02:03:56;;;;;;;34.57;6.80;;;5.10;75.50;;;;;;5029971;28;20384;-70
2024/01/23 02:06:23;;;;;;;42.90;7.30;;;5.10;75.60;;;;;;5021405;28;20124;-71
2024/01/23 02:08:50;;;;;;;37.23;6.93;;;5.10;75.60;;;;;;5040764;28;20057;-72
2024/01/23 02:11:15;;;;;;;33.67;6.37;;;5.10;75.50;;;;;;5023210;28;20075;-71
2024/01/23 02:13:41;;;;;;;33.63;7.23;;;5.10;75.50;;;;;;5041772;28;20048;-73
2024/01/23 02:16:08;;;;;;;34.23;6.70;;;5.10;75.50;;;;;;5024000;28;20055;-71
2024/01/23 02:18:34;;;;;;;37.53;7.17;;;5.10;75.30;;;;;;5011873;28;20396;-71
2024/01/23 02:21:00;;;;;;;31.97;6.80;;;5.10;75.50;;;;;;5043052;28;20052;-72
2024/01/23 02:23:29;;;;;;;33.50;6.67;;;5.10;75.40;;;;;;5034706;28;20049;-71
2024/01/23 02:25:55;;;;;;;34.30;6.50;;;5.10;75.40;;;;;;5044163;28;20052;-72
2024/01/23 02:28:21;;;;;;;41.67;7.17;;;5.10;75.50;;;;;;5035201;28;20262;-72
2024/01/23 02:30:47;;;;;;;33.77;7.23;;;5.10;75.50;;;;;;5044434;28;20424;-72
2024/01/23 02:33:13;;;;;;;35.23;6.97;;;5.10;75.50;;;;;;5044595;28;20098;-71
2024/01/23 02:35:39;;;;;;;42.77;7.00;;;5.10;75.50;;;;;;5016623;28;20056;-71
2024/01/23 02:38:05;;;;;;;39.47;7.20;;;5.20;75.50;;;;;;5037143;28;20075;-71
2024/01/23 02:40:31;;;;;;;33.87;6.77;;;5.20;75.50;;;;;;5037891;28;20052;-71
2024/01/23 02:42:56;;;;;;;31.10;6.97;;;5.30;75.20;;;;;;5030813;28;20558;-71
2024/01/23 02:45:23;;;;;;;36.87;7.17;;;5.30;75.10;;;;;;5024168;28;20052;-71
2024/01/23 02:47:49;;;;;;;37.93;7.37;;;5.30;75.20;;;;;;5036736;28;20127;-71
2024/01/23 02:50:14;;;;;;;41.37;7.33;;;5.40;75.10;;;;;;5033330;28;20742;-71
2024/01/23 02:52:40;;;;;;;34.73;7.47;;;5.50;75.00;;;;;;5016125;28;20579;-70
2024/01/23 02:55:06;;;;;;;34.80;7.33;;;5.50;74.80;;;;;;5035859;28;20053;-71
2024/01/23 02:57:32;;;;;;;35.70;7.67;;;5.50;74.60;;;;;;5032545;28;20057;-71
2024/01/23 02:59:57;;;;;;;38.80;7.77;;;5.50;74.60;;;;;;5035271;28;20061;-71
2024/01/23 03:02:23;;;;;;;33.60;8.13;;;5.60;74.60;;;;;;5038199;28;20052;-70
2024/01/23 03:04:49;;;;;;;42.13;7.87;;;5.60;74.40;;;;;;5044532;28;20044;-71
2024/01/23 03:07:17;;;;;;;34.90;7.87;;;5.60;74.20;;;;;;5014655;28;20064;-70
2024/01/23 03:09:43;;;;;;;40.27;8.20;;;5.70;74.20;;;;;;5026916;28;20056;-70
2024/01/23 03:12:17;;;;;;;35.87;7.63;;;5.70;74.00;;;;;;5040839;28;20059;-71
2024/01/23 03:14:43;;;;;;;41.27;8.13;;;5.70;74.00;;;;;;5026416;28;20055;-71
2024/01/23 03:17:13;;;;;;;32.10;7.40;;;5.70;73.90;;;;;;5029675;28;20132;-72
2024/01/23 03:19:40;;;;;;;35.67;7.13;;;5.70;74.00;;;;;;5015471;28;20129;-71
2024/01/23 03:22:05;;;;;;;34.63;7.60;;;5.80;73.30;;;;;;5029835;28;20048;-71
2024/01/23 03:24:32;;;;;;;36.33;7.70;;;5.80;73.40;;;;;;5013602;28;20550;-72
2024/01/23 03:26:58;;;;;;;40.90;8.07;;;5.90;73.10;;;;;;5039720;28;20059;-71
2024/01/23 03:29:24;;;;;;;39.80;8.10;;;5.90;72.80;;;;;;5030359;28;20053;-72
2024/01/23 03:31:50;;;;;;;34.13;7.33;;;6.00;73.00;;;;;;5033866;28;20586;-71
2024/01/23 03:34:18;;;;;;;40.03;8.00;;;6.00;73.00;;;;;;5040376;28;20053;-72
2024/01/23 03:36:44;;;;;;;48.90;7.70;;;6.00;72.90;;;;;;5040741;28;20044;-72
2024/01/23 03:39:10;;;;;;;43.53;8.00;;;6.00;72.90;;;;;;5040193;28;20077;-71
2024/01/23 03:41:37;;;;;;;36.10;8.57;;;6.00;73.10;;;;;;5040368;28;20198;-72
2024/01/23 03:44:05;;;;;;;39.73;7.90;;;6.00;73.00;;;;;;5041689;28;20049;-74
2024/01/23 03:46:31;;;;;;;40.40;7.53;;;6.00;73.10;;;;;;5012247;28;20041;-71
2024/01/23 03:48:57;;;;;;;41.10;7.60;;;6.10;73.00;;;;;;5025421;28;20048;-71
2024/01/23 03:51:22;;;;;;;41.77;8.60;;;6.10;72.80;;;;;;5039139;28;20056;-71
2024/01/23 03:53:48;;;;;;;43.43;8.13;;;6.20;72.90;;;;;;5033211;28;20069;-71
2024/01/23 03:56:15;;;;;;;39.80;7.80;;;6.20;72.80;;;;;;5012571;28;20049;-72
2024/01/23 03:58:41;;;;;;;39.07;8.73;;;6.20;73.00;;;;;;5010645;28;20533;-71
2024/01/23 04:01:07;;;;;;;42.77;8.37;;;6.20;73.00;;;;;;5030704;28;20045;-71
2024/01/23 04:03:32;;;;;;;43.60;7.93;;;6.20;73.10;;;;;;5041251;28;20492;-71
2024/01/23 04:05:58;;;;;;;42.50;8.27;;;6.20;73.10;;;;;;5035994;28;20124;-71
2024/01/23 04:08:24;;;;;;;42.27;8.13;;;6.20;73.30;;;;;;5019980;28;20595;-71
2024/01/23 04:10:50;;;;;;;43.10;8.43;;;6.20;73.20;;;;;;5033855;28;20052;-71
2024/01/23 04:13:15;;;;;;;42.37;9.00;;;6.20;73.40;;;;;;5022768;28;20125;-71
2024/01/23 04:15:41;;;;;;;42.60;8.60;;;6.20;73.40;;;;;;5039175;28;20060;-71
2024/01/23 04:18:07;;;;;;;47.37;8.43;;;6.20;73.60;;;;;;5040151;28;20685;-71
2024/01/23 04:20:33;;;;;;;44.33;8.60;;;6.20;73.80;;;;;;5041296;28;20098;-72
2024/01/23 04:22:59;;;;;;;46.47;9.20;;;6.10;73.90;;;;;;5016173;28;20056;-71
2024/01/23 04:25:25;;;;;;;41.90;9.00;;;6.20;73.90;;;;;;5039062;28;20075;-71
2024/01/23 04:27:52;;;;;;;42.53;8.97;;;6.20;73.90;;;;;;5042639;28;20049;-71
2024/01/23 04:30:19;;;;;;;42.73;9.03;;;6.20;73.90;;;;;;5044146;28;20057;-71
2024/01/23 04:32:45;;;;;;;45.10;8.80;;;6.20;74.00;;;;;;5040148;28;20051;-71
2024/01/23 04:35:12;;;;;;;41.03;8.53;;;6.20;74.00;;;;;;5033893;28;20081;-71
2024/01/23 04:37:37;;;;;;;43.73;9.00;;;6.20;74.10;;;;;;5040958;28;20523;-71
2024/01/23 04:40:08;;;;;;;37.73;8.57;;;6.20;74.30;;;;;;5037011;28;20080;-71
2024/01/23 04:42:34;;;;;;;47.97;9.93;;;6.20;74.20;;;;;;5025185;28;20564;-71
2024/01/23 04:45:00;;;;;;;56.17;9.63;;;6.20;74.10;;;;;;5026820;28;20090;-71
2024/01/23 04:47:26;;;;;;;37.33;9.07;;;6.20;74.30;;;;;;5040537;28;20053;-72
2024/01/23 04:49:52;;;;;;;47.80;9.53;;;6.20;74.30;;;;;;5042464;28;20048;-71
2024/01/23 04:52:18;;;;;;;39.23;8.53;;;6.20;74.30;;;;;;5034769;28;20429;-72
2024/01/23 04:54:44;;;;;;;48.33;9.53;;;6.20;74.40;;;;;;5038042;28;20064;-71
2024/01/23 04:57:11;;;;;;;42.60;8.93;;;6.20;74.40;;;;;;5041363;28;20117;-70
2024/01/23 04:59:37;;;;;;;49.73;8.67;;;6.20;74.60;;;;;;5020756;28;20053;-71
2024/01/23 05:02:04;;;;;;;47.50;9.50;;;6.20;74.60;;;;;;5039784;28;20041;-71
2024/01/23 05:04:30;;;;;;;46.07;9.13;;;6.20;74.50;;;;;;5022026;28;20069;-71
2024/01/23 05:06:55;;;;;;;44.30;9.90;;;6.20;74.70;;;;;;5036910;28;20072;-72
2024/01/23 05:09:21;;;;;;;43.60;9.37;;;6.20;74.70;;;;;;5023041;28;20041;-71
2024/01/23 05:11:47;;;;;;;50.20;9.30;;;6.20;74.50;;;;;;5045995;28;20111;-71
2024/01/23 05:14:17;;;;;;;42.93;10.17;;;6.20;74.60;;;;;;5027632;28;20094;-71
2024/01/23 05:16:43;;;;;;;51.17;9.77;;;6.10;74.60;;;;;;5039397;28;20052;-71
2024/01/23 05:19:09;;;;;;;49.83;9.67;;;6.10;74.60;;;;;;5040547;28;20160;-71
2024/01/23 05:21:35;;;;;;;47.93;9.57;;;6.10;74.70;;;;;;5040828;28;20053;-71
2024/01/23 05:24:02;;;;;;;43.53;9.80;;;6.00;74.80;;;;;;5045845;28;20057;-72
2024/01/23 05:26:28;;;;;;;48.83;9.70;;;5.90;75.00;;;;;;5045374;28;20048;-72
2024/01/23 05:28:54;;;;;;;49.80;10.10;;;5.90;75.10;;;;;;5044552;28;20049;-71
2024/01/23 05:31:19;;;;;;;40.30;9.23;;;5.80;75.20;;;;;;5028231;28;20057;-71
2024/01/23 05:33:45;;;;;;;60.87;10.70;;;5.70;75.50;;;;;;5043968;28;20048;-71
2024/01/23 05:36:11;;;;;;;45.77;10.20;;;5.70;75.70;;;;;;5044691;28;20507;-73
2024/01/23 05:38:36;;;;;;;64.20;10.53;;;5.70;75.80;;;;;;5047047;28;20412;-72
2024/01/23 05:41:03;;;;;;;57.87;11.13;;;5.70;75.90;;;;;;5027508;28;20036;-71
2024/01/23 05:43:29;;;;;;;54.27;11.03;;;5.70;76.10;;;;;;5027633;28;20124;-72
2024/01/23 05:45:54;;;;;;;51.93;10.50;;;5.60;76.20;;;;;;5043618;28;20467;-71
2024/01/23 05:48:20;;;;;;;50.77;10.93;;;5.60;76.50;;;;;;5035564;28;20672;-71
2024/01/23 05:50:46;;;;;;;54.03;10.93;;;5.60;76.40;;;;;;5022794;28;20055;-71
2024/01/23 05:53:11;;;;;;;56.60;11.90;;;5.60;76.50;;;;;;5045755;28;20063;-71
2024/01/23 05:55:37;;;;;;;59.03;11.67;;;5.60;76.50;;;;;;5028182;28;20037;-72
2024/01/23 05:58:03;;;;;;;56.97;10.90;;;5.60;76.60;;;;;;5042778;28;20048;-71
2024/01/23 06:00:29;;;;;;;52.53;10.97;;;5.50;76.60;;;;;;5011048;28;20045;-71
2024/01/23 06:02:54;;;;;;;53.17;10.50;;;5.60;76.70;;;;;;5045503;28;20048;-71
2024/01/23 06:05:20;;;;;;;55.17;11.17;;;5.50;76.70;;;;;;5040876;28;20049;-72
2024/01/23 06:07:49;;;;;;;46.37;10.37;;;5.60;76.60;;;;;;5043886;28;20045;-73
2024/01/23 06:10:16;;;;;;;47.87;10.43;;;5.50;76.60;;;;;;5040190;28;20098;-71
2024/01/23 06:12:42;;;;;;;60.53;11.43;;;5.50;76.90;;;;;;5038614;28;20053;-72
2024/01/23 06:15:08;;;;;;;53.23;11.00;;;5.50;77.00;;;;;;5032222;28;20546;-71
2024/01/23 06:17:34;;;;;;;64.53;10.87;;;5.50;77.00;;;;;;5014543;28;20037;-72
2024/01/23 06:20:04;;;;;;;55.03;10.90;;;5.50;77.10;;;;;;5011438;28;20115;-73
2024/01/23 06:22:30;;;;;;;59.40;10.97;;;5.50;77.20;;;;;;5009795;28;20462;-72
2024/01/23 06:25:00;;;;;;;51.97;10.30;;;5.40;77.30;;;;;;5020974;28;20155;-72
2024/01/23 06:27:26;;;;;;;53.97;11.27;;;5.50;77.20;;;;;;5024051;28;20049;-71
2024/01/23 06:29:51;;;;;;;61.10;11.00;;;5.50;77.20;;;;;;5040384;28;20686;-71
2024/01/23 06:32:17;;;;;;;58.50;11.77;;;5.40;77.30;;;;;;5043489;28;20247;-72
2024/01/23 06:34:43;;;;;;;56.63;11.53;;;5.40;77.40;;;;;;5043420;28;20057;-71
2024/01/23 06:37:08;;;;;;;59.67;11.33;;;5.30;77.50;;;;;;5031500;28;20202;-71
2024/01/23 06:39:34;;;;;;;59.97;11.77;;;5.30;77.50;;;;;;5033233;28;20564;-71
2024/01/23 06:42:00;;;;;;;58.77;11.20;;;5.30;77.50;;;;;;5043205;28;20075;-74
2024/01/23 06:44:25;;;;;;;57.90;10.53;;;5.30;77.50;;;;;;5029020;28;20473;-71
2024/01/23 06:46:51;;;;;;;62.13;10.93;;;5.30;77.50;;;;;;5037577;28;20493;-72
2024/01/23 06:49:17;;;;;;;67.43;11.03;;;5.30;77.70;;;;;;5031049;28;20601;-71
2024/01/23 06:51:42;;;;;;;53.50;10.53;;;5.30;77.70;;;;;;5022081;28;20049;-71
2024/01/23 06:54:08;;;;;;;52.53;10.73;;;5.30;77.70;;;;;;5033231;28;20496;-71
2024/01/23 06:56:34;;;;;;;50.70;9.97;;;5.30;77.60;;;;;;5041844;28;20063;-70
2024/01/23 06:59:02;;;;;;;56.50;10.60;;;5.30;77.80;;;;;;5043986;28;20045;-71
2024/01/23 07:01:28;;;;;;;60.43;9.83;;;5.30;77.80;;;;;;5025189;28;20436;-72
2024/01/23 07:03:53;;;;;;;65.30;10.77;;;5.20;77.80;;;;;;5010833;28;20042;-71
2024/01/23 07:06:19;;;;;;;52.40;10.73;;;5.20;77.90;;;;;;5034651;28;20063;-71
2024/01/23 07:08:45;;;;;;;63.97;11.63;;;5.20;77.90;;;;;;5027157;28;20122;-71
2024/01/23 07:11:12;;;;;;;66.23;12.60;;;5.20;78.10;;;;;;5042666;28;20068;-70
2024/01/23 07:13:38;;;;;;;54.80;11.20;;;5.10;78.00;;;;;;5044967;28;20045;-71
2024/01/23 07:16:04;;;;;;;62.23;11.13;;;5.10;78.10;;;;;;5040917;28;20561;-71
2024/01/23 07:18:29;;;;;;;65.67;11.23;;;5.10;78.30;;;;;;5039240;28;20051;-71
2024/01/23 07:20:55;;;;;;;58.80;11.77;;;5.10;78.20;;;;;;5038001;28;20056;-70
2024/01/23 07:23:21;;;;;;;69.40;12.17;;;5.00;78.30;;;;;;5020544;28;20063;-71
2024/01/23 07:25:46;;;;;;;63.60;10.97;;;5.00;78.30;;;;;;5036960;28;20056;-71
2024/01/23 07:28:12;;;;;;;56.30;11.77;;;5.00;78.30;;;;;;5043129;28;20048;-71
2024/01/23 07:30:38;;;;;;;64.63;11.70;;;5.00;78.30;;;;;;5045086;28;20049;-71
2024/01/23 07:33:03;;;;;;;61.53;12.00;;;5.00;78.50;;;;;;5044140;28;20092;-71
2024/01/23 07:35:29;;;;;;;61.13;11.17;;;5.00;78.50;;;;;;5039732;28;20051;-71
2024/01/23 07:37:55;;;;;;;57.13;10.67;;;5.00;78.50;;;;;;5045568;28;20127;-71
2024/01/23 07:40:20;;;;;;;63.87;12.17;;;5.00;78.50;;;;;;5037242;28;20480;-72
2024/01/23 07:42:46;;;;;;;58.03;11.93;;;5.10;78.40;;;;;;5038166;28;20057;-71
2024/01/23 07:45:12;;;;;;;69.23;11.57;;;5.10;78.40;;;;;;5020152;28;20176;-72
2024/01/23 07:47:38;;;;;;;64.30;11.77;;;5.00;78.40;;;;;;5039491;28;20053;-74
2024/01/23 07:50:07;;;;;;;56.90;10.73;;;5.10;78.40;;;;;;5023257;28;20048;-71
2024/01/23 07:52:33;;;;;;;57.50;11.63;;;5.10;78.40;;;;;;5043932;28;20514;-71
2024/01/23 07:54:59;;;;;;;57.80;11.80;;;5.10;78.30;;;;;;5011804;28;20050;-71
2024/01/23 07:57:25;;;;;;;56.00;10.87;;;5.10;78.30;;;;;;5034249;28;20055;-71
2024/01/23 07:59:51;;;;;;;55.10;10.90;;;5.10;78.20;;;;;;5034243;28;20578;-72
2024/01/23 08:02:16;;;;;;;56.60;11.30;;;5.10;78.20;;;;;;5028664;28;20081;-72
2024/01/23 08:04:42;;;;;;;60.00;11.53;;;5.10;78.40;;;;;;5035890;28;20500;-72
2024/01/23 08:07:08;;;;;;;64.43;10.80;;;5.10;78.40;;;;;;5021180;28;20056;-72
2024/01/23 08:09:33;;;;;;;64.77;11.40;;;5.10;78.40;;;;;;5039170;28;20583;-71
2024/01/23 08:11:59;;;;;;;65.83;11.90;;;5.10;78.50;;;;;;5035570;28;20077;-73
2024/01/23 08:14:25;;;;;;;68.83;11.80;;;5.10;78.50;;;;;;5040030;28;20115;-72
2024/01/23 08:16:51;;;;;;;61.50;11.07;;;5.20;78.40;;;;;;5036855;28;20082;-72
2024/01/23 08:19:16;;;;;;;61.80;11.50;;;5.20;78.30;;;;;;5040552;28;20443;-72
2024/01/23 08:21:42;;;;;;;57.77;11.87;;;5.30;78.20;;;;;;5024283;28;20069;-72
2024/01/23 08:24:08;;;;;;;62.17;12.03;;;5.30;78.10;;;;;;5031974;28;20057;-75
2024/01/23 08:26:34;;;;;;;57.37;11.07;;;5.30;78.00;;;;;;5024733;28;20098;-74
2024/01/23 08:28:59;;;;;;;53.40;10.97;;;5.30;77.90;;;;;;5018286;28;20052;-73
2024/01/23 08:31:25;;;;;;;56.03;11.57;;;5.30;77.90;;;;;;5026474;28;20053;-73
2024/01/23 08:33:51;;;;;;;62.40;11.43;;;5.30;77.90;;;;;;5047702;28;20049;-72
2024/01/23 08:36:16;;;;;;;59.83;11.13;;;5.30;77.90;;;;;;5024608;28;20041;-74
2024/01/23 08:38:43;;;;;;;49.63;10.57;;;5.40;77.80;;;;;;5034881;28;20106;-72
2024/01/23 08:41:09;;;;;;;52.63;10.87;;;5.50;77.70;;;;;;5028356;28;20085;-72
2024/01/23 08:43:35;;;;;;;61.40;12.07;;;5.40;77.70;;;;;;5039301;28;20057;-72
2024/01/23 08:46:01;;;;;;;58.17;11.60;;;5.40;77.70;;;;;;5013810;28;20054;-73
2024/01/23 08:48:28;;;;;;;56.07;11.20;;;5.40;77.80;;;;;;5042459;28;20497;-75
2024/01/23 08:50:54;;;;;;;58.57;11.50;;;5.40;77.80;;;;;;5032321;28;20049;-72
2024/01/23 08:53:19;;;;;;;64.13;11.07;;;5.40;77.80;;;;;;5034903;28;20068;-72
2024/01/23 08:55:47;;;;;;;52.27;10.87;;;5.50;77.80;;;;;;5020675;28;20480;-72
2024/01/23 08:58:16;;;;;;;63.40;11.63;;;5.50;77.70;;;;;;5015279;28;20045;-72
2024/01/23 09:00:42;;;;;;;55.17;10.73;;;5.50;77.70;;;;;;5017897;28;20077;-72
2024/01/23 09:03:08;;;;;;;60.33;11.23;;;5.50;77.80;;;;;;5039950;28;20084;-72
2024/01/23 09:05:33;;;;;;;68.17;10.90;;;5.50;77.80;;;;;;5037401;28;20415;-72
2024/01/23 09:07:59;;;;;;;59.33;12.00;;;5.60;77.70;;;;;;5037952;28;20049;-72
2024/01/23 09:10:25;;;;;;;61.40;11.07;;;5.70;77.50;;;;;;5023458;28;20053;-72
2024/01/23 09:12:50;;;;;;;49.73;10.67;;;5.80;77.30;;;;;;5041794;28;20084;-72
2024/01/23 09:15:16;;;;;;;59.13;11.60;;;5.90;77.10;;;;;;5045774;28;20726;-72
2024/01/23 09:17:42;;;;;;;63.77;10.93;;;6.00;76.90;;;;;;5025308;28;20040;-72
2024/01/23 09:20:08;;;;;;;54.43;10.83;;;5.90;76.70;;;;;;5039056;28;20052;-72
2024/01/23 09:22:34;;;;;;;58.20;10.77;;;5.90;76.70;;;;;;5016840;28;20068;-72
2024/01/23 09:25:01;;;;;;;61.07;11.37;;;5.80;76.90;;;;;;5033080;28;20049;-72
2024/01/23 09:27:27;;;;;;;56.33;10.43;;;5.80;77.00;;;;;;5033625;28;20055;-75
2024/01/23 09:29:53;;;;;;;52.37;10.97;;;5.80;77.10;;;;;;5046370;28;20486;-73
2024/01/23 09:32:18;;;;;;;62.23;11.13;;;5.80;77.10;;;;;;5021419;28;20090;-73
2024/01/23 09:34:45;;;;;;;58.30;10.60;;;5.80;77.10;;;;;;5041359;28;20090;-72
2024/01/23 09:37:11;;;;;;;56.40;10.10;;;5.80;77.00;;;;;;5036989;28;20069;-73
2024/01/23 09:39:36;;;;;;;57.50;11.40;;;5.90;77.10;;;;;;5044408;28;20087;-73
2024/01/23 09:42:02;;;;;;;52.57;10.90;;;5.90;77.10;;;;;;5045245;28;20398;-72
2024/01/23 09:44:28;;;;;;;55.40;10.27;;;5.90;77.00;;;;;;5044968;28;20049;-73
2024/01/23 09:46:54;;;;;;;56.33;11.40;;;6.00;76.80;;;;;;5040552;28;20049;-75
2024/01/23 09:49:20;;;;;;;57.40;11.77;;;6.10;76.80;;;;;;5032824;28;20124;-73
2024/01/23 09:51:50;;;;;;;57.63;11.60;;;6.20;76.60;;;;;;5029093;28;20068;-73
2024/01/23 09:54:16;;;;;;;56.97;11.17;;;6.30;76.30;;;;;;5039067;28;20045;-73
2024/01/23 09:56:42;;;;;;;50.20;10.57;;;6.40;76.10;;;;;;5019148;28;20103;-73
2024/01/23 09:59:11;;;;;;;60.47;11.90;;;6.40;76.10;;;;;;5019312;28;20049;-73
2024/01/23 10:01:37;;;;;;;53.67;11.20;;;6.40;75.90;;;;;;5015219;28;20044;-73
2024/01/23 10:04:04;;;;;;;54.40;11.80;;;6.40;76.10;;;;;;5017395;28;20030;-71
2024/01/23 10:06:33;;;;;;;51.73;10.93;;;6.50;76.10;;;;;;5022096;28;20415;-71
2024/01/23 10:09:00;;;;;;;52.23;10.63;;;6.70;75.90;;;;;;5041801;28;20053;-71
2024/01/23 10:11:33;;;;;;;54.27;10.97;;;6.80;75.60;;;;;;5041598;28;20049;-70
2024/01/23 10:14:01;;;;;;;47.93;10.23;;;7.00;75.40;;;;;;5026982;28;20075;-73
2024/01/23 10:16:27;;;;;;;47.00;10.13;;;7.20;74.80;;;;;;5025497;28;20056;-71
2024/01/23 10:18:53;;;;;;;46.63;10.77;;;7.40;74.10;;;;;;5026357;28;20056;-71
2024/01/23 10:21:22;;;;;;;51.53;10.73;;;7.40;74.10;;;;;;5017562;28;20052;-71
2024/01/23 10:23:52;;;;;;;54.83;10.43;;;7.50;74.00;;;;;;5035588;28;20080;-71
2024/01/23 10:26:19;;;;;;;56.57;10.93;;;7.60;73.60;;;;;;5042808;28;20048;-71
2024/01/23 10:28:49;;;;;;;48.27;8.90;;;7.60;73.50;;;;;;5042517;28;20048;-72
2024/01/23 10:31:16;;;;;;;51.23;10.20;;;7.60;73.70;;;;;;5045847;28;20033;-71
2024/01/23 10:33:42;;;;;;;51.70;9.70;;;7.50;73.20;;;;;;5027549;28;20041;-71
2024/01/23 10:36:09;;;;;;;58.40;10.77;;;7.60;73.60;;;;;;5024278;28;20080;-72
2024/01/23 10:38:35;;;;;;;43.77;10.37;;;7.80;73.30;;;;;;5028260;28;20053;-71
2024/01/23 10:41:07;;;;;;;56.00;11.03;;;8.00;72.80;;;;;;5016068;28;20136;-72
2024/01/23 10:43:36;;;;;;;56.33;11.05;;;8.20;72.20;;;;;;5035158;28;20053;-71
2024/01/23 10:46:02;;;;;;;48.87;10.23;;;8.60;71.80;;;;;;5040222;28;20408;-71
2024/01/23 10:48:31;;;;;;;45.33;10.30;;;9.00;70.30;;;;;;5038273;28;20049;-72
2024/01/23 10:51:05;;;;;;;45.70;9.90;;;9.30;70.70;;;;;;5026855;28;20051;-71
2024/01/23 10:53:59;;;;;;;43.93;9.60;;;9.50;69.90;;;;;;5041242;28;20856;-71
2024/01/23 10:56:30;;;;;;;48.70;9.37;;;9.60;68.60;;;;;;5024609;28;20052;-71
2024/01/23 10:59:00;;;;;;;45.40;10.00;;;9.40;69.70;;;;;;5027517;28;20037;-72
2024/01/23 11:01:29;;;;;;;41.95;9.63;;;9.60;68.80;;;;;;5025275;28;20443;-71
2024/01/23 11:03:56;;;;;;;41.80;9.73;;;9.40;69.00;;;;;;5041447;28;20064;-70
2024/01/23 11:06:29;;;;;;;41.57;9.30;;;9.20;69.20;;;;;;5034721;28;20049;-71
2024/01/23 11:09:11;;;;;;;50.40;9.60;;;9.10;69.40;;;;;;5028163;28;20084;-71
2024/01/23 11:12:06;;;;;;;53.70;10.80;;;8.90;70.00;;;;;;5012445;28;20080;-70
2024/01/23 11:15:00;;;;;;;40.10;9.20;;;8.80;69.90;;;;;;5039359;28;20053;-71
2024/01/23 11:17:31;;;;;;;41.00;9.53;;;8.90;70.30;;;;;;5025705;28;20136;-70
2024/01/23 11:20:07;;;;;;;44.17;9.37;;;9.00;70.20;;;;;;5029141;28;20856;-71
2024/01/23 11:22:33;;;;;;;48.20;10.10;;;9.00;70.10;;;;;;5027557;28;20053;-71
2024/01/23 11:24:59;;;;;;;50.83;10.40;;;9.00;70.00;;;;;;5029453;28;20102;-71
2024/01/23 11:27:25;;;;;;;42.77;9.63;;;9.00;69.50;;;;;;5037636;28;20049;-71
2024/01/23 11:29:52;;;;;;;42.93;10.27;;;9.20;68.60;;;;;;5038355;28;20106;-71
2024/01/23 11:32:23;;;;;;;42.93;8.83;;;9.30;68.70;;;;;;5024549;28;20049;-73
2024/01/23 11:35:01;;;;;;;45.92;9.25;;;9.60;68.60;;;;;;5021897;28;20048;-70
2024/01/23 11:37:45;;;;;;;52.80;8.73;;;9.60;68.00;;;;;;5035202;28;20448;-73
2024/01/23 11:40:30;;;;;;;47.70;9.90;;;9.50;68.00;;;;;;5025614;28;20049;-71
2024/01/23 11:42:58;;;;;;;39.37;8.43;;;9.40;67.90;;;;;;5039271;28;20037;-71
2024/01/23 11:45:29;;;;;;;40.63;8.80;;;9.40;68.40;;;;;;5043347;28;20110;-70
2024/01/23 11:47:59;;;;;;;36.22;8.20;;;9.30;68.60;;;;;;5044148;28;20044;-70
2024/01/23 11:50:27;;;;;;;40.53;8.68;;;9.20;68.10;;;;;;5024608;28;20509;-71
2024/01/23 11:52:53;;;;;;;43.40;8.67;;;8.90;69.00;;;;;;5044261;28;20132;-70
2024/01/23 11:55:20;;;;;;;45.57;7.77;;;8.80;69.70;;;;;;5042477;28;20060;-71
2024/01/23 11:57:56;;;;;;;42.13;8.80;;;8.70;69.70;;;;;;5043835;28;20064;-70
2024/01/23 12:00:22;;;;;;;50.53;8.83;;;8.50;69.90;;;;;;5017359;28;20489;-70
2024/01/23 12:02:50;;;;;;;39.73;8.50;;;8.10;70.20;;;;;;5023514;28;20279;-72
2024/01/23 12:05:17;;;;;;;43.00;9.00;;;8.00;70.70;;;;;;5043449;28;20049;-72
2024/01/23 12:07:43;;;;;;;49.53;9.67;;;8.00;70.90;;;;;;5043791;28;20562;-72
2024/01/23 12:10:11;;;;;;;42.83;8.90;;;8.10;71.10;;;;;;5043154;28;20456;-73
2024/01/23 12:12:38;;;;;;;41.70;8.20;;;8.10;71.20;;;;;;5043764;28;20488;-72
2024/01/23 12:15:04;;;;;;;41.33;9.27;;;8.00;71.20;;;;;;5043164;28;20102;-72
2024/01/23 12:17:34;;;;;;;44.67;8.60;;;8.00;71.40;;;;;;5025390;28;20539;-72
2024/01/23 12:20:05;;;;;;;49.17;8.93;;;8.00;71.50;;;;;;5041853;28;20389;-72
2024/01/23 12:22:31;;;;;;;43.80;7.80;;;8.00;71.40;;;;;;5022815;28;20335;-72
2024/01/23 12:24:57;;;;;;;46.97;9.30;;;8.00;71.70;;;;;;5025836;28;20063;-73
2024/01/23 12:27:25;;;;;;;44.63;8.10;;;8.00;71.80;;;;;;5026028;28;20045;-72
2024/01/23 12:29:51;;;;;;;42.03;8.80;;;8.00;71.70;;;;;;5044559;28;20515;-73
2024/01/23 12:32:17;;;;;;;37.33;8.50;;;8.00;71.50;;;;;;5029494;28;20052;-73
2024/01/23 12:34:45;;;;;;;44.37;8.47;;;7.90;71.80;;;;;;5029350;28;20044;-72
2024/01/23 12:37:11;;;;;;;48.27;9.30;;;7.80;71.90;;;;;;5029303;28;20120;-72
2024/01/23 12:39:36;;;;;;;39.60;8.23;;;7.80;71.80;;;;;;5029843;28;20518;-72
2024/01/23 12:42:02;;;;;;;41.83;7.90;;;7.80;72.00;;;;;;5040382;28;20051;-73